»·PEaware :: DAL1142 KSLC-KPDX

DAL1142 :: KSLC-KPDX

FLIGHT INFORMATION

Flight Status: Arrived
Operator:
Delta Air Lines
More flights by this operator :: More flights under this callsign
Pilot: Joe P. (13940)
Aircraft: BOEING 737-800
(B738)
More flights by this aircraft type
Origin: KSLC Salt Lake City Intl
United States
Destination: KPDX Portland Intl
United States
More flights between these airports :: More routes between these airports
Route: +TWF4 TWF J15 BOI J163 BKE JOTBA HHOOD4
File this flight plan on PilotEdge
Remarks: SEL / ABCD -PBN / A1B1C1D1L1O1S1 NAV / RNVD1E2A1 DOF / 180113 REG / N389DA EET / KZSE0105 RVR / 200
Altitude:
(Current/Filed)
36,000ft
Speed:
(Current/Filed)
445kts
Departed: 12-Jan-18 05:44 PM
Arrived: 12-Jan-18 07:31 PM
Distance/Time
Traveled:
546nm/1:47
Distance/Time
To Go:
Arrived

Flight Plot

Page will automatically refresh every two minutes.

Flight plan parsing failed; only flown route is shown


Map Options




Map Legend


Flown Route
Filed Route
Departure Airport
Arrival Airport
Navaid (VOR, NDB)
Fix

Horizontal Profiles

Position Reports

Time Latitude Longitude Heading Altitude Ground
Speed
12-Jan-18 16:37 40.787383 -111.981153 284 4235ft 0kts
12-Jan-18 16:38 40.787383 -111.981153 284 4235ft 0kts
12-Jan-18 16:39 40.787383 -111.981153 284 4235ft 0kts
12-Jan-18 16:40 40.787383 -111.981153 284 4235ft 0kts
12-Jan-18 16:41 40.787383 -111.981153 284 4235ft 0kts
12-Jan-18 16:42 40.787383 -111.981153 284 4235ft 0kts
12-Jan-18 16:43 40.787383 -111.981153 284 4235ft 0kts
12-Jan-18 16:44 40.787383 -111.981153 284 4235ft 0kts
12-Jan-18 16:45 40.787383 -111.981153 284 4235ft 0kts
12-Jan-18 16:46 40.787383 -111.981153 284 4234ft 0kts
12-Jan-18 16:47 40.787383 -111.981153 284 4234ft 0kts
12-Jan-18 16:48 40.787383 -111.981153 284 4234ft 0kts
12-Jan-18 16:49 40.787383 -111.981153 284 4234ft 0kts
12-Jan-18 16:50 40.787383 -111.981153 284 4234ft 0kts
12-Jan-18 16:51 40.787383 -111.981153 284 4234ft 0kts
12-Jan-18 16:52 40.787383 -111.981153 284 4234ft 0kts
12-Jan-18 16:53 40.787383 -111.981153 284 4234ft 0kts
12-Jan-18 16:54 40.787383 -111.981153 284 4234ft 0kts
12-Jan-18 16:55 40.787383 -111.981153 284 4234ft 0kts
12-Jan-18 16:56 40.787383 -111.981153 284 4234ft 0kts
12-Jan-18 16:57 40.787383 -111.981153 284 4234ft 0kts
12-Jan-18 16:58 40.787383 -111.981153 284 4234ft 0kts
12-Jan-18 16:59 40.787383 -111.981153 284 4234ft 0kts
12-Jan-18 17:00 40.787383 -111.981153 284 4234ft 0kts
12-Jan-18 17:01 40.787383 -111.981153 284 4234ft 0kts
12-Jan-18 17:02 40.787383 -111.981153 284 4234ft 0kts
12-Jan-18 17:03 40.787383 -111.981153 284 4234ft 0kts
12-Jan-18 17:04 40.787383 -111.981153 284 4234ft 0kts
12-Jan-18 17:05 40.787383 -111.981153 284 4234ft 0kts
12-Jan-18 17:06 40.787383 -111.981153 284 4234ft 0kts
12-Jan-18 17:07 40.787383 -111.981153 284 4234ft 0kts
12-Jan-18 17:08 40.787383 -111.981153 284 4234ft 0kts
12-Jan-18 17:09 40.787383 -111.981153 284 4234ft 0kts
12-Jan-18 17:10 40.787383 -111.981153 284 4234ft 0kts
12-Jan-18 17:11 40.787383 -111.981153 284 4234ft 0kts
12-Jan-18 17:12 40.787383 -111.981153 284 4234ft 0kts
12-Jan-18 17:13 40.787383 -111.981153 284 4234ft 0kts
12-Jan-18 17:14 40.787383 -111.981153 284 4234ft 0kts
12-Jan-18 17:15 40.787383 -111.981153 284 4234ft 0kts
12-Jan-18 17:16 40.787383 -111.981153 284 4234ft 0kts
12-Jan-18 17:17 40.787383 -111.981153 284 4234ft 0kts
12-Jan-18 17:18 40.787383 -111.981153 284 4234ft 0kts
12-Jan-18 17:19 40.787383 -111.981153 284 4234ft 0kts
12-Jan-18 17:20 40.787383 -111.981153 284 4234ft 0kts
12-Jan-18 17:21 40.787383 -111.981153 284 4234ft 0kts
12-Jan-18 17:22 40.787383 -111.981153 284 4234ft 0kts
12-Jan-18 17:23 40.787383 -111.981153 284 4234ft 0kts
12-Jan-18 17:24 40.787383 -111.981153 284 4234ft 0kts
12-Jan-18 17:25 40.787383 -111.981153 284 4234ft 0kts
12-Jan-18 17:26 40.787383 -111.981153 284 4234ft 0kts
12-Jan-18 17:27 40.787383 -111.981153 284 4234ft 0kts
12-Jan-18 17:28 40.787383 -111.981153 284 4234ft 0kts
12-Jan-18 17:29 40.787383 -111.981153 284 4234ft 0kts
12-Jan-18 17:30 40.787239 -111.980426 284 4234ft 2kts
12-Jan-18 17:31 40.787156 -111.980006 284 4234ft 0kts
12-Jan-18 17:32 40.787156 -111.980006 284 4234ft 0kts
12-Jan-18 17:33 40.787156 -111.980006 284 4234ft 0kts
12-Jan-18 17:34 40.787156 -111.980006 284 4234ft 0kts
12-Jan-18 17:35 40.787156 -111.980006 284 4234ft 0kts
12-Jan-18 17:36 40.787156 -111.980006 284 4234ft 0kts
12-Jan-18 17:37 40.787156 -111.980006 284 4234ft 0kts
12-Jan-18 17:38 40.787156 -111.980006 284 4234ft 0kts
12-Jan-18 17:39 40.787156 -111.980007 284 4234ft 0kts
12-Jan-18 17:40 40.787473 -111.980335 352 4235ft 11kts
12-Jan-18 17:41 40.789617 -111.977387 144 4234ft 0kts
12-Jan-18 17:42 40.787215 -111.976880 176 4235ft 24kts
12-Jan-18 17:43 40.781978 -111.976219 175 4234ft 11kts
12-Jan-18 17:44 40.778560 -111.975404 174 4235ft 16kts
12-Jan-18 17:45 40.776034 -111.975087 172 4234ft 0kts
12-Jan-18 17:46 40.774487 -111.974594 91 4235ft 0kts
12-Jan-18 17:47 40.774487 -111.974580 90 4235ft 2kts
12-Jan-18 17:48 40.775252 -111.973164 354 4234ft 1kts
12-Jan-18 17:49 40.775490 -111.973194 354 4235ft 19kts
12-Jan-18 17:50 40.815925 -111.978716 350 5182ft 216kts
12-Jan-18 17:51 40.848857 -112.037681 289 8421ft 253kts
12-Jan-18 17:52 40.874926 -112.138492 289 9972ft 342kts
12-Jan-18 17:53 40.910487 -112.243095 314 10164ft 285kts
12-Jan-18 17:54 40.970527 -112.309045 321 13446ft 278kts
12-Jan-18 17:55 41.029445 -112.376329 318 16586ft 282kts
12-Jan-18 17:56 41.090470 -112.443546 325 19199ft 297kts
12-Jan-18 17:57 41.168280 -112.508663 325 20104ft 358kts
12-Jan-18 17:58 41.248321 -112.589474 322 22420ft 365kts
12-Jan-18 17:59 41.321911 -112.683625 313 24461ft 373kts
12-Jan-18 18:00 41.392551 -112.787249 314 26247ft 381kts
12-Jan-18 18:01 41.463044 -112.894272 314 27825ft 388kts
12-Jan-18 18:02 41.534329 -113.003760 314 29173ft 395kts
12-Jan-18 18:03 41.605877 -113.114119 315 30936ft 387kts
12-Jan-18 18:04 41.676136 -113.221995 315 32499ft 382kts
12-Jan-18 18:05 41.745262 -113.328606 316 34034ft 375kts
12-Jan-18 18:06 41.813217 -113.433979 315 35249ft 373kts
12-Jan-18 18:07 41.880738 -113.539133 315 36392ft 371kts
12-Jan-18 18:08 41.948607 -113.645259 314 36458ft 371kts
12-Jan-18 18:09 42.015433 -113.750124 314 36456ft 369kts
12-Jan-18 18:10 42.082149 -113.855191 314 36459ft 369kts
12-Jan-18 18:11 42.148991 -113.960829 314 36466ft 369kts
12-Jan-18 18:12 42.215506 -114.066332 314 36469ft 369kts
12-Jan-18 18:13 42.282003 -114.171977 314 36472ft 369kts
12-Jan-18 18:14 42.348643 -114.278172 314 36475ft 369kts
12-Jan-18 18:15 42.414836 -114.384566 314 36478ft 370kts
12-Jan-18 18:16 42.480976 -114.491156 314 36479ft 370kts
12-Jan-18 18:17 42.548730 -114.596023 315 36478ft 369kts
12-Jan-18 18:18 42.616279 -114.700970 314 36475ft 369kts
12-Jan-18 18:19 42.683624 -114.806109 314 36474ft 369kts
12-Jan-18 18:20 42.751370 -114.911445 314 36469ft 369kts
12-Jan-18 18:21 42.818759 -115.016654 314 36468ft 369kts
12-Jan-18 18:22 42.886309 -115.122735 314 36468ft 369kts
12-Jan-18 18:23 42.953449 -115.228641 313 36468ft 369kts
12-Jan-18 18:24 43.011523 -115.320588 313 36468ft 369kts
12-Jan-18 18:25 43.078617 -115.427191 313 36468ft 369kts
12-Jan-18 18:26 43.145359 -115.533633 313 36468ft 369kts
12-Jan-18 18:27 43.212359 -115.640878 313 36468ft 369kts
12-Jan-18 18:28 43.278988 -115.747934 313 36468ft 369kts
12-Jan-18 18:29 43.345413 -115.854988 313 36468ft 368kts
12-Jan-18 18:30 43.411997 -115.962303 313 36468ft 368kts
12-Jan-18 18:31 43.478135 -116.070005 312 36469ft 369kts
12-Jan-18 18:32 43.544423 -116.178197 313 36469ft 368kts
12-Jan-18 18:33 43.619408 -116.273372 319 36470ft 367kts
12-Jan-18 18:34 43.695605 -116.366785 319 36470ft 367kts
12-Jan-18 18:35 43.771963 -116.460819 319 36470ft 367kts
12-Jan-18 18:36 43.848388 -116.554745 319 36475ft 367kts
12-Jan-18 18:37 43.925133 -116.649244 319 36477ft 369kts
12-Jan-18 18:38 44.001611 -116.743982 318 36478ft 370kts
12-Jan-18 18:39 44.077622 -116.838561 318 36479ft 366kts
12-Jan-18 18:40 44.153849 -116.933787 318 36478ft 367kts
12-Jan-18 18:41 44.217112 -117.013092 318 36478ft 368kts
12-Jan-18 18:42 44.306063 -117.125009 318 36475ft 369kts
12-Jan-18 18:43 44.369507 -117.205131 318 36474ft 369kts
12-Jan-18 18:44 44.458390 -117.317791 317 36471ft 370kts
12-Jan-18 18:45 44.522061 -117.398799 317 36470ft 370kts
12-Jan-18 18:46 44.610845 -117.512030 317 36469ft 370kts
12-Jan-18 18:47 44.674498 -117.593328 317 36469ft 370kts
12-Jan-18 18:48 44.762935 -117.707352 317 36469ft 370kts
12-Jan-18 18:49 44.823854 -117.791780 304 36470ft 370kts
12-Jan-18 18:50 44.853839 -117.933327 287 36469ft 381kts
12-Jan-18 18:51 44.874836 -118.079827 285 36469ft 383kts
12-Jan-18 18:52 44.894398 -118.227421 285 36467ft 383kts
12-Jan-18 18:53 44.913883 -118.375409 285 36466ft 383kts
12-Jan-18 18:54 44.933023 -118.523302 285 36463ft 383kts
12-Jan-18 18:55 44.951768 -118.671554 285 36460ft 383kts
12-Jan-18 18:56 44.970167 -118.819352 284 36462ft 383kts
12-Jan-18 18:57 44.988380 -118.967546 284 36464ft 383kts
12-Jan-18 18:58 45.006434 -119.116214 284 36462ft 384kts
12-Jan-18 18:59 45.024242 -119.264557 284 36462ft 383kts
12-Jan-18 19:00 45.041935 -119.413650 283 36466ft 383kts
12-Jan-18 19:01 45.059368 -119.562307 283 36465ft 383kts
12-Jan-18 19:02 45.076593 -119.710892 283 36464ft 383kts
12-Jan-18 19:03 45.093677 -119.860031 283 36464ft 383kts
12-Jan-18 19:04 45.110513 -120.008755 283 36464ft 383kts
12-Jan-18 19:05 45.127617 -120.158730 282 36464ft 385kts
12-Jan-18 19:06 45.144072 -120.308374 282 35974ft 382kts
12-Jan-18 19:07 45.160184 -120.457851 282 33216ft 387kts
12-Jan-18 19:08 45.198309 -120.597276 298 30952ft 374kts
12-Jan-18 19:09 45.246601 -120.725326 298 28952ft 363kts
12-Jan-18 19:10 45.294354 -120.850036 298 27019ft 354kts
12-Jan-18 19:11 45.340729 -120.972019 298 25126ft 348kts
12-Jan-18 19:12 45.386505 -121.092630 298 23253ft 343kts
12-Jan-18 19:13 45.429644 -121.212755 290 21409ft 339kts
12-Jan-18 19:14 45.455939 -121.341081 286 19593ft 336kts
12-Jan-18 19:15 45.480250 -121.464091 287 18528ft 314kts
12-Jan-18 19:16 45.503717 -121.583022 286 17170ft 306kts
12-Jan-18 19:17 45.526197 -121.698494 285 15901ft 298kts
12-Jan-18 19:18 45.533395 -121.815127 275 14698ft 293kts
12-Jan-18 19:19 45.537195 -121.928861 275 12999ft 281kts
12-Jan-18 19:20 45.553961 -122.032382 286 11321ft 274kts
12-Jan-18 19:21 45.574976 -122.132925 285 10360ft 244kts
12-Jan-18 19:22 45.593998 -122.224891 284 9460ft 252kts
12-Jan-18 19:23 45.613399 -122.318891 284 8399ft 241kts
12-Jan-18 19:24 45.632047 -122.409507 283 7426ft 236kts
12-Jan-18 19:25 45.654671 -122.496972 294 6533ft 239kts
12-Jan-18 19:26 45.685816 -122.582367 293 5631ft 241kts
12-Jan-18 19:27 45.715961 -122.665574 294 4987ft 226kts
12-Jan-18 19:28 45.746475 -122.743406 296 4992ft 224kts
12-Jan-18 19:29 45.776950 -122.818951 297 4990ft 215kts
12-Jan-18 19:30 45.755845 -122.884583 207 3818ft 223kts
12-Jan-18 19:31 45.700850 -122.876914 136 2978ft 207kts
12-Jan-18 19:32 45.669912 -122.813020 122 2946ft 183kts
12-Jan-18 19:33 45.647071 -122.754956 120 2084ft 158kts
12-Jan-18 19:34 45.626507 -122.702072 119 1284ft 149kts
12-Jan-18 19:35 45.606817 -122.651456 118 507ft 143kts
12-Jan-18 19:36 45.589124 -122.605789 114 26ft 44kts
12-Jan-18 19:37 45.588016 -122.602156 96 26ft 0kts
12-Jan-18 19:38 45.588016 -122.602154 96 26ft 0kts
12-Jan-18 19:39 45.588020 -122.597779 123 26ft 7kts
12-Jan-18 19:40 45.588367 -122.595879 29 26ft 0kts
12-Jan-18 19:41 45.588374 -122.595874 29 26ft 0kts
12-Jan-18 19:42 45.588374 -122.595874 29 26ft 0kts
12-Jan-18 19:43 45.588375 -122.595873 29 26ft 0kts
12-Jan-18 19:44 45.588375 -122.595873 29 26ft 0kts
12-Jan-18 19:45 45.588375 -122.595873 29 26ft 0kts
12-Jan-18 19:46 45.588375 -122.595873 29 26ft 0kts
12-Jan-18 19:47 45.588375 -122.595873 29 26ft 0kts
12-Jan-18 19:48 45.588375 -122.595873 29 26ft 0kts
12-Jan-18 19:49 45.588375 -122.595873 29 26ft 0kts
12-Jan-18 19:50 45.588375 -122.595873 29 26ft 0kts
12-Jan-18 19:51 45.588375 -122.595873 29 26ft 0kts

Navigation Log

Ident Type
Flight plan parsing failed, navigation log unavailable